Time;durP1;ratioP1;P1;durP2;ratioP2;P2;SDS_P1;SDS_P2;PMS_P1;PMS_P2;Temp;Humidity;BMP_temperature;BMP_pressure;BME280_temperature;BME280_humidity;BME280_pressure;Samples;Min_cycle;Max_cycle;Signal;HPM_P1;HPM_P2
2023/06/21 00:00:14;;;;;;;28.25;22.92;;;;;;;;;;5080519;28;20349;-70
2023/06/21 00:02:42;;;;;;;27.60;23.13;;;;;;;;;;5080226;28;20323;-70
2023/06/21 00:05:08;;;;;;;31.83;25.80;;;;;;;;;;5084023;28;20198;-70
2023/06/21 00:07:34;;;;;;;27.80;24.75;;;;;;;;;;5082242;28;20207;-70
2023/06/21 00:09:59;;;;;;;26.20;22.52;;;;;;;;;;5084711;28;20195;-70
2023/06/21 00:12:25;;;;;;;28.73;23.63;;;;;;;;;;5060791;28;20560;-70
2023/06/21 00:14:51;;;;;;;35.80;26.85;;;;;;;;;;5086327;28;20195;-71
2023/06/21 00:17:16;;;;;;;29.02;24.25;;;;;;;;;;5078090;28;20205;-70
2023/06/21 00:19:42;;;;;;;33.83;26.67;;;;;;;;;;5076059;28;20224;-69
2023/06/21 00:22:07;;;;;;;29.52;24.42;;;;;;;;;;5086299;28;20655;-69
2023/06/21 00:24:33;;;;;;;28.65;23.40;;;;;;;;;;5077596;28;20187;-70
2023/06/21 00:26:58;;;;;;;31.80;25.55;;;;;;;;;;5087504;28;20192;-70
2023/06/21 00:29:23;;;;;;;30.80;24.45;;;;;;;;;;5079214;28;20192;-70
2023/06/21 00:31:49;;;;;;;36.42;28.35;;;;;;;;;;5082678;28;20372;-70
2023/06/21 00:34:14;;;;;;;38.30;28.17;;;;;;;;;;5081216;28;20188;-70
2023/06/21 00:36:42;;;;;;;32.05;24.90;;;;;;;;;;5083704;28;20275;-70
2023/06/21 00:39:09;;;;;;;42.75;32.05;;;;;;;;;;5080490;28;20226;-70
2023/06/21 00:41:35;;;;;;;37.20;29.85;;;;;;;;;;5076425;28;20230;-70
2023/06/21 00:44:00;;;;;;;38.85;30.70;;;;;;;;;;5081172;28;20180;-70
2023/06/21 00:46:26;;;;;;;39.60;30.08;;;;;;;;;;5085973;28;20249;-70
2023/06/21 00:48:51;;;;;;;36.75;28.45;;;;;;;;;;5085920;28;20227;-70
2023/06/21 00:51:17;;;;;;;42.92;31.98;;;;;;;;;;5069452;28;20185;-70
2023/06/21 00:53:43;;;;;;;31.83;27.10;;;;;;;;;;5073909;28;20189;-70
2023/06/21 00:56:09;;;;;;;35.60;28.88;;;;;;;;;;5077355;28;20271;-70
2023/06/21 00:58:35;;;;;;;38.70;31.30;;;;;;;;;;5081716;28;20263;-70
2023/06/21 01:01:00;;;;;;;40.85;32.22;;;;;;;;;;5088805;28;20200;-70
2023/06/21 01:03:26;;;;;;;41.80;32.05;;;;;;;;;;5086888;28;20195;-69
2023/06/21 01:06:32;;;;;;;42.80;34.25;;;;;;;;;;5070523;28;20550;-69
2023/06/21 01:09:42;;;;;;;42.70;35.00;;;;;;;;;;5082841;28;20218;-69
2023/06/21 01:12:40;;;;;;;48.08;35.92;;;;;;;;;;5083058;28;20192;-70
2023/06/21 01:15:20;;;;;;;48.38;37.15;;;;;;;;;;5072413;28;20302;-70
2023/06/21 01:17:51;;;;;;;45.15;34.63;;;;;;;;;;5082732;28;20188;-70
2023/06/21 01:20:24;;;;;;;48.67;37.65;;;;;;;;;;5068340;28;20199;-70
2023/06/21 01:23:12;;;;;;;49.58;38.05;;;;;;;;;;5081704;28;21407;-70
2023/06/21 01:25:41;;;;;;;47.10;37.28;;;;;;;;;;5075737;28;20205;-69
2023/06/21 01:28:15;;;;;;;48.20;36.88;;;;;;;;;;5076538;28;20242;-70
2023/06/21 01:30:42;;;;;;;51.55;38.63;;;;;;;;;;5078275;28;20187;-69
2023/06/21 01:33:09;;;;;;;50.20;39.42;;;;;;;;;;5088237;28;20191;-69
2023/06/21 01:35:34;;;;;;;49.53;36.42;;;;;;;;;;5070952;28;20264;-70
2023/06/21 01:38:00;;;;;;;50.95;38.25;;;;;;;;;;5074444;28;20248;-69
2023/06/21 01:40:28;;;;;;;47.83;38.70;;;;;;;;;;5086276;28;20278;-70
2023/06/21 01:42:54;;;;;;;50.75;38.83;;;;;;;;;;5072929;28;20219;-69
2023/06/21 01:45:23;;;;;;;48.70;38.00;;;;;;;;;;5088322;28;20667;-67
2023/06/21 01:47:49;;;;;;;46.33;34.90;;;;;;;;;;5053858;28;20576;-69
2023/06/21 01:50:16;;;;;;;49.55;36.88;;;;;;;;;;5079708;28;20667;-69
2023/06/21 01:52:43;;;;;;;46.67;37.55;;;;;;;;;;5079443;28;20188;-69
2023/06/21 01:55:09;;;;;;;48.17;35.75;;;;;;;;;;5084822;28;20291;-69
2023/06/21 01:57:35;;;;;;;46.83;37.58;;;;;;;;;;5082622;28;20576;-70
2023/06/21 02:00:15;;;;;;;42.53;34.78;;;;;;;;;;5080687;28;20200;-69
2023/06/21 02:02:45;;;;;;;47.60;37.42;;;;;;;;;;5074780;28;20730;-70
2023/06/21 02:05:12;;;;;;;40.22;32.72;;;;;;;;;;5083433;28;20641;-68
2023/06/21 02:07:38;;;;;;;48.80;35.90;;;;;;;;;;5088314;28;20638;-69
2023/06/21 02:10:04;;;;;;;49.42;35.42;;;;;;;;;;5076211;28;20180;-70
2023/06/21 02:12:33;;;;;;;45.60;35.90;;;;;;;;;;5078721;28;20200;-69
2023/06/21 02:14:59;;;;;;;48.15;34.83;;;;;;;;;;5080483;28;20177;-70
2023/06/21 02:17:24;;;;;;;45.78;36.20;;;;;;;;;;5077807;28;20221;-70
2023/06/21 02:19:49;;;;;;;44.78;35.60;;;;;;;;;;5079672;28;20216;-69
2023/06/21 02:22:15;;;;;;;44.22;34.55;;;;;;;;;;5082365;28;20188;-69
2023/06/21 02:24:41;;;;;;;46.10;35.50;;;;;;;;;;5079947;28;20199;-69
2023/06/21 02:27:07;;;;;;;44.08;35.30;;;;;;;;;;5083923;28;20191;-69
2023/06/21 02:29:32;;;;;;;42.95;35.03;;;;;;;;;;5083661;28;20184;-71
2023/06/21 02:31:57;;;;;;;41.58;34.03;;;;;;;;;;5079751;28;20184;-69
2023/06/21 02:34:23;;;;;;;42.20;33.67;;;;;;;;;;5084660;28;20206;-69
2023/06/21 02:36:53;;;;;;;48.55;35.08;;;;;;;;;;5086497;28;20559;-69
2023/06/21 02:39:20;;;;;;;40.92;34.13;;;;;;;;;;5079040;28;20667;-69
2023/06/21 02:41:46;;;;;;;38.05;32.33;;;;;;;;;;5082909;28;20188;-69
2023/06/21 02:44:12;;;;;;;38.95;31.13;;;;;;;;;;5084077;28;20234;-69
2023/06/21 02:46:37;;;;;;;39.47;33.60;;;;;;;;;;5075773;28;20193;-69
2023/06/21 02:49:02;;;;;;;38.55;30.90;;;;;;;;;;5079737;28;20208;-69
2023/06/21 02:51:28;;;;;;;41.00;32.25;;;;;;;;;;5085811;28;20188;-70
2023/06/21 02:53:53;;;;;;;42.92;32.85;;;;;;;;;;5082136;28;20259;-69
2023/06/21 02:56:18;;;;;;;41.50;33.28;;;;;;;;;;5085111;28;20212;-69
2023/06/21 02:58:44;;;;;;;40.92;33.08;;;;;;;;;;5082720;28;20187;-71
2023/06/21 03:01:09;;;;;;;45.28;34.47;;;;;;;;;;5084135;28;20223;-69
2023/06/21 03:03:34;;;;;;;41.38;33.60;;;;;;;;;;5079960;28;20253;-69
2023/06/21 03:06:00;;;;;;;41.35;33.53;;;;;;;;;;5079404;28;20215;-69
2023/06/21 03:08:26;;;;;;;39.20;33.58;;;;;;;;;;5082364;28;20566;-69
2023/06/21 03:10:51;;;;;;;42.53;34.15;;;;;;;;;;5079649;28;20185;-69
2023/06/21 03:13:16;;;;;;;39.58;33.78;;;;;;;;;;5084409;28;20192;-69
2023/06/21 03:15:42;;;;;;;41.65;34.45;;;;;;;;;;5085410;28;20199;-69
2023/06/21 03:18:07;;;;;;;40.13;33.42;;;;;;;;;;5078389;28;20195;-69
2023/06/21 03:20:33;;;;;;;39.95;32.85;;;;;;;;;;5082582;28;20204;-69
2023/06/21 03:22:58;;;;;;;41.13;33.88;;;;;;;;;;5083830;28;20188;-69
2023/06/21 03:25:23;;;;;;;42.67;34.50;;;;;;;;;;5081925;28;20241;-69
2023/06/21 03:27:49;;;;;;;41.03;33.85;;;;;;;;;;5070382;28;20688;-69
2023/06/21 03:30:14;;;;;;;41.00;34.70;;;;;;;;;;5075385;28;20271;-69
2023/06/21 03:32:47;;;;;;;37.63;31.70;;;;;;;;;;5083054;28;20188;-69
2023/06/21 03:35:16;;;;;;;42.38;33.90;;;;;;;;;;5080993;28;20207;-70
2023/06/21 03:37:42;;;;;;;43.13;34.17;;;;;;;;;;5082715;28;20189;-69
2023/06/21 03:40:11;;;;;;;43.30;33.83;;;;;;;;;;5078952;28;20353;-69
2023/06/21 03:42:37;;;;;;;40.50;33.58;;;;;;;;;;5074760;28;20201;-70
2023/06/21 03:45:02;;;;;;;42.08;33.50;;;;;;;;;;5083304;28;20188;-68
2023/06/21 03:47:28;;;;;;;40.55;32.92;;;;;;;;;;5083934;28;20549;-68
2023/06/21 03:49:57;;;;;;;42.38;35.78;;;;;;;;;;5086800;28;20192;-68
2023/06/21 03:52:23;;;;;;;43.13;34.03;;;;;;;;;;5083112;28;20195;-69
2023/06/21 03:54:48;;;;;;;43.25;34.50;;;;;;;;;;5086279;28;20614;-69
2023/06/21 03:57:13;;;;;;;45.25;35.60;;;;;;;;;;5078901;28;20189;-69
2023/06/21 03:59:39;;;;;;;43.60;32.75;;;;;;;;;;5079720;28;20652;-68
2023/06/21 04:02:05;;;;;;;46.22;35.88;;;;;;;;;;5083968;28;20300;-68
2023/06/21 04:04:30;;;;;;;41.22;33.13;;;;;;;;;;5085257;28;20360;-70
2023/06/21 04:06:55;;;;;;;49.30;36.35;;;;;;;;;;5085729;28;20218;-69
2023/06/21 04:09:21;;;;;;;47.22;37.58;;;;;;;;;;5078812;28;20269;-69
2023/06/21 04:11:46;;;;;;;47.00;37.35;;;;;;;;;;5076626;28;20280;-69
2023/06/21 04:14:12;;;;;;;44.55;36.13;;;;;;;;;;5087045;28;20188;-69
2023/06/21 04:16:37;;;;;;;44.78;34.28;;;;;;;;;;5083778;28;20200;-68
2023/06/21 04:19:03;;;;;;;47.90;37.15;;;;;;;;;;5082197;28;20649;-69
2023/06/21 04:21:28;;;;;;;49.53;37.45;;;;;;;;;;5078787;28;20249;-69
2023/06/21 04:23:53;;;;;;;48.97;37.13;;;;;;;;;;5083918;28;20184;-68
2023/06/21 04:26:19;;;;;;;47.42;37.03;;;;;;;;;;5089022;28;20703;-68
2023/06/21 04:28:48;;;;;;;48.53;37.15;;;;;;;;;;5074608;28;20216;-69
2023/06/21 04:31:13;;;;;;;46.42;37.55;;;;;;;;;;5078670;28;20200;-69
2023/06/21 04:33:38;;;;;;;46.63;35.63;;;;;;;;;;5080836;28;20196;-69
2023/06/21 04:36:04;;;;;;;48.22;36.50;;;;;;;;;;5077339;28;20271;-69
2023/06/21 04:38:29;;;;;;;45.88;36.47;;;;;;;;;;5077942;28;20203;-68
2023/06/21 04:40:55;;;;;;;48.67;38.47;;;;;;;;;;5078024;28;20251;-69
2023/06/21 04:43:24;;;;;;;45.90;35.78;;;;;;;;;;5086653;28;20215;-69
2023/06/21 04:45:50;;;;;;;47.33;36.55;;;;;;;;;;5077605;28;20200;-69
2023/06/21 04:48:16;;;;;;;47.50;37.17;;;;;;;;;;5083007;28;20204;-69
2023/06/21 04:50:45;;;;;;;47.47;37.60;;;;;;;;;;5082433;28;20184;-68
2023/06/21 04:53:12;;;;;;;50.00;37.67;;;;;;;;;;5079109;28;20242;-70
2023/06/21 04:55:42;;;;;;;49.50;37.58;;;;;;;;;;5075682;28;20557;-69
2023/06/21 04:58:12;;;;;;;49.00;38.10;;;;;;;;;;5083203;28;20176;-69
2023/06/21 05:00:37;;;;;;;51.88;40.00;;;;;;;;;;5083738;28;20212;-67
2023/06/21 05:03:03;;;;;;;47.45;38.38;;;;;;;;;;5074136;28;20670;-69
2023/06/21 05:05:28;;;;;;;49.20;37.63;;;;;;;;;;5070051;28;20225;-68
2023/06/21 05:07:54;;;;;;;47.28;38.55;;;;;;;;;;5072074;28;20292;-69
2023/06/21 05:10:19;;;;;;;48.47;36.78;;;;;;;;;;5081557;28;20600;-68
2023/06/21 05:12:45;;;;;;;50.70;37.47;;;;;;;;;;5077814;28;20206;-69
2023/06/21 05:15:10;;;;;;;51.30;39.40;;;;;;;;;;5077893;28;20200;-68
2023/06/21 05:17:36;;;;;;;55.25;39.63;;;;;;;;;;5082894;28;20249;-68
2023/06/21 05:20:04;;;;;;;50.70;39.60;;;;;;;;;;5079696;28;20223;-68
2023/06/21 05:22:29;;;;;;;53.50;39.88;;;;;;;;;;5081966;28;20234;-68
2023/06/21 05:24:55;;;;;;;52.92;39.60;;;;;;;;;;5082576;28;20220;-69
2023/06/21 05:27:20;;;;;;;50.38;39.22;;;;;;;;;;5076618;28;20192;-69
2023/06/21 05:29:45;;;;;;;53.60;41.75;;;;;;;;;;5074338;28;20255;-69
2023/06/21 05:32:11;;;;;;;53.95;40.63;;;;;;;;;;5081321;28;20558;-68
2023/06/21 05:34:36;;;;;;;53.30;40.05;;;;;;;;;;5081849;28;20192;-70
2023/06/21 05:37:02;;;;;;;53.45;40.13;;;;;;;;;;5081936;28;20200;-71
2023/06/21 05:39:27;;;;;;;53.35;39.50;;;;;;;;;;5072773;28;20250;-70
2023/06/21 05:41:52;;;;;;;53.00;40.22;;;;;;;;;;5079731;28;20219;-69
2023/06/21 05:44:18;;;;;;;55.15;40.75;;;;;;;;;;5071898;28;20258;-69
2023/06/21 05:46:43;;;;;;;53.67;39.85;;;;;;;;;;5074705;28;20199;-69
2023/06/21 05:49:09;;;;;;;48.75;36.47;;;;;;;;;;5073941;28;20628;-69
2023/06/21 05:51:34;;;;;;;54.95;40.17;;;;;;;;;;5080472;28;20216;-68
2023/06/21 05:53:59;;;;;;;55.45;38.90;;;;;;;;;;5081271;28;20188;-69
2023/06/21 05:56:26;;;;;;;52.13;38.97;;;;;;;;;;5084804;28;20550;-69
2023/06/21 05:58:52;;;;;;;52.28;39.13;;;;;;;;;;5074354;28;20597;-69
2023/06/21 06:01:17;;;;;;;52.40;38.92;;;;;;;;;;5080367;28;20227;-69
2023/06/21 06:03:43;;;;;;;51.85;40.50;;;;;;;;;;5071010;28;20193;-69
2023/06/21 06:06:08;;;;;;;46.45;36.58;;;;;;;;;;5072853;28;20625;-68
2023/06/21 06:08:34;;;;;;;49.20;37.88;;;;;;;;;;5086488;28;20207;-68
2023/06/21 06:10:59;;;;;;;48.42;37.80;;;;;;;;;;5085752;28;20354;-68
2023/06/21 06:13:25;;;;;;;50.90;40.05;;;;;;;;;;5081061;28;20561;-69
2023/06/21 06:15:51;;;;;;;50.63;38.85;;;;;;;;;;5077594;28;20195;-69
2023/06/21 06:18:16;;;;;;;48.75;38.78;;;;;;;;;;5084192;28;20188;-69
2023/06/21 06:20:43;;;;;;;47.35;38.45;;;;;;;;;;5078337;28;20644;-68
2023/06/21 06:23:11;;;;;;;52.20;40.35;;;;;;;;;;5082652;28;20530;-67
2023/06/21 06:25:37;;;;;;;51.90;39.10;;;;;;;;;;5082604;28;20260;-68
2023/06/21 06:28:02;;;;;;;47.15;37.72;;;;;;;;;;5072142;28;20291;-68
2023/06/21 06:30:28;;;;;;;52.60;39.15;;;;;;;;;;5073478;28;20675;-69
2023/06/21 06:32:53;;;;;;;46.05;36.53;;;;;;;;;;5086376;28;20187;-70
2023/06/21 06:35:18;;;;;;;48.00;38.53;;;;;;;;;;5081504;28;20189;-69
2023/06/21 06:37:44;;;;;;;45.38;36.33;;;;;;;;;;5079473;28;20180;-68
2023/06/21 06:40:10;;;;;;;50.90;38.85;;;;;;;;;;5077159;28;20266;-69
2023/06/21 06:42:47;;;;;;;47.03;36.20;;;;;;;;;;5071354;28;20195;-69
2023/06/21 06:45:12;;;;;;;46.55;37.22;;;;;;;;;;5081389;28;20552;-70
2023/06/21 06:47:38;;;;;;;44.70;35.63;;;;;;;;;;5077789;28;20548;-69
2023/06/21 06:50:04;;;;;;;45.67;34.33;;;;;;;;;;5080089;28;20344;-69
2023/06/21 06:52:30;;;;;;;47.13;37.08;;;;;;;;;;5081158;28;20204;-69
2023/06/21 06:54:55;;;;;;;45.83;36.78;;;;;;;;;;5070467;28;20192;-69
2023/06/21 06:57:22;;;;;;;47.70;38.00;;;;;;;;;;5075733;28;20336;-68
2023/06/21 06:59:48;;;;;;;48.08;34.90;;;;;;;;;;5075653;28;20260;-69
2023/06/21 07:02:14;;;;;;;42.13;34.00;;;;;;;;;;5079122;28;20204;-69
2023/06/21 07:04:39;;;;;;;41.45;34.20;;;;;;;;;;5073329;28;20188;-68
2023/06/21 07:07:04;;;;;;;42.42;33.95;;;;;;;;;;5080722;28;20196;-69
2023/06/21 07:09:30;;;;;;;46.47;34.70;;;;;;;;;;5082440;28;20219;-68
2023/06/21 07:11:59;;;;;;;43.47;32.92;;;;;;;;;;5083059;28;20354;-68
2023/06/21 07:14:24;;;;;;;42.33;34.28;;;;;;;;;;5070143;28;20227;-69
2023/06/21 07:16:52;;;;;;;44.92;35.13;;;;;;;;;;5077946;28;20588;-69
2023/06/21 07:19:18;;;;;;;44.17;34.47;;;;;;;;;;5070328;28;20267;-68
2023/06/21 07:21:44;;;;;;;40.75;33.47;;;;;;;;;;5071133;28;20292;-68
2023/06/21 07:24:10;;;;;;;42.10;33.83;;;;;;;;;;5089147;28;20667;-69
2023/06/21 07:26:36;;;;;;;43.70;34.40;;;;;;;;;;5087586;28;20246;-69
2023/06/21 07:29:01;;;;;;;41.78;35.08;;;;;;;;;;5076940;28;20220;-69
2023/06/21 07:31:26;;;;;;;45.03;33.67;;;;;;;;;;5090451;28;20632;-69
2023/06/21 07:33:56;;;;;;;44.08;33.63;;;;;;;;;;5078092;28;20195;-70
2023/06/21 07:36:22;;;;;;;44.08;33.30;;;;;;;;;;5070546;28;20196;-70
2023/06/21 07:38:48;;;;;;;39.47;32.25;;;;;;;;;;5085698;28;20185;-70
2023/06/21 07:41:14;;;;;;;40.25;32.78;;;;;;;;;;5084302;28;20177;-70
2023/06/21 07:43:39;;;;;;;39.25;32.92;;;;;;;;;;5083561;28;20242;-70
2023/06/21 07:46:04;;;;;;;33.88;28.75;;;;;;;;;;5085910;28;20615;-69
2023/06/21 07:48:30;;;;;;;40.17;32.03;;;;;;;;;;5082256;28;20359;-69
2023/06/21 07:50:55;;;;;;;42.50;32.13;;;;;;;;;;5078518;28;20188;-70
2023/06/21 07:53:21;;;;;;;39.75;30.95;;;;;;;;;;5083715;28;20199;-70
2023/06/21 07:55:46;;;;;;;38.60;31.63;;;;;;;;;;5076522;28;20634;-70
2023/06/21 07:58:11;;;;;;;31.42;27.85;;;;;;;;;;5082604;28;20188;-70
2023/06/21 08:00:37;;;;;;;35.45;28.25;;;;;;;;;;5083437;28;20212;-70
2023/06/21 08:03:02;;;;;;;38.15;31.15;;;;;;;;;;5074847;28;20672;-70
2023/06/21 08:05:28;;;;;;;36.03;30.52;;;;;;;;;;5070154;28;20197;-70
2023/06/21 08:07:53;;;;;;;34.58;29.88;;;;;;;;;;5074016;28;20290;-69
2023/06/21 08:10:19;;;;;;;31.88;26.73;;;;;;;;;;5070539;28;20181;-69
2023/06/21 08:12:44;;;;;;;34.97;30.38;;;;;;;;;;5090039;28;20600;-69
2023/06/21 08:15:10;;;;;;;38.70;30.20;;;;;;;;;;5075622;28;20662;-70
2023/06/21 08:17:36;;;;;;;36.35;30.45;;;;;;;;;;5088365;28;20195;-70
2023/06/21 08:20:03;;;;;;;34.70;28.50;;;;;;;;;;5085650;28;20181;-70
2023/06/21 08:22:28;;;;;;;33.58;26.73;;;;;;;;;;5051969;28;20189;-69
2023/06/21 08:24:55;;;;;;;31.50;26.25;;;;;;;;;;5078450;28;20192;-69
2023/06/21 08:27:20;;;;;;;30.85;25.63;;;;;;;;;;5078320;28;20623;-70
2023/06/21 08:29:47;;;;;;;30.67;25.80;;;;;;;;;;5077412;28;20222;-70
2023/06/21 08:32:12;;;;;;;28.83;25.35;;;;;;;;;;5082602;28;20190;-70
2023/06/21 08:34:38;;;;;;;32.35;26.10;;;;;;;;;;5071082;28;20181;-70
2023/06/21 08:37:04;;;;;;;31.23;27.02;;;;;;;;;;5082916;28;20215;-70
2023/06/21 08:39:29;;;;;;;29.67;25.73;;;;;;;;;;5077275;28;20221;-70
2023/06/21 08:41:54;;;;;;;32.03;26.77;;;;;;;;;;5071390;28;20187;-70
2023/06/21 08:44:20;;;;;;;29.05;24.23;;;;;;;;;;5087786;28;20188;-70
2023/06/21 08:46:49;;;;;;;29.30;25.50;;;;;;;;;;5082078;28;20199;-70
2023/06/21 08:49:18;;;;;;;30.83;25.55;;;;;;;;;;5076204;28;20722;-70
2023/06/21 08:51:45;;;;;;;28.60;24.48;;;;;;;;;;5081339;28;20194;-71
2023/06/21 08:54:12;;;;;;;30.00;23.83;;;;;;;;;;5083358;28;20652;-70
2023/06/21 08:56:43;;;;;;;32.25;26.50;;;;;;;;;;5081704;28;20183;-70
2023/06/21 08:59:17;;;;;;;30.85;26.13;;;;;;;;;;5083447;28;20188;-71
2023/06/21 09:01:52;;;;;;;31.27;25.55;;;;;;;;;;5089997;28;20788;-69
2023/06/21 09:04:22;;;;;;;26.25;21.98;;;;;;;;;;5088413;28;20207;-71
2023/06/21 09:06:48;;;;;;;28.67;24.00;;;;;;;;;;5077171;28;20210;-71
2023/06/21 09:09:15;;;;;;;32.22;26.10;;;;;;;;;;5088778;28;20212;-70
2023/06/21 09:11:41;;;;;;;31.90;25.90;;;;;;;;;;5089355;28;20188;-71
2023/06/21 09:14:07;;;;;;;31.10;24.75;;;;;;;;;;5085785;28;20262;-68
2023/06/21 09:16:33;;;;;;;29.83;23.88;;;;;;;;;;5070330;28;20188;-70
2023/06/21 09:18:59;;;;;;;26.35;22.25;;;;;;;;;;5081199;28;20279;-67
2023/06/21 09:21:25;;;;;;;26.30;21.80;;;;;;;;;;5086500;28;20648;-70
2023/06/21 09:23:50;;;;;;;29.67;21.88;;;;;;;;;;5072088;28;20193;-70
2023/06/21 09:26:16;;;;;;;28.17;22.92;;;;;;;;;;5082623;28;20179;-70
2023/06/21 09:28:43;;;;;;;25.38;22.00;;;;;;;;;;5053412;28;20217;-70
2023/06/21 09:31:09;;;;;;;24.92;21.52;;;;;;;;;;5069307;28;20203;-71
2023/06/21 09:33:36;;;;;;;30.23;25.17;;;;;;;;;;5086646;28;20177;-71
2023/06/21 09:36:03;;;;;;;25.27;22.30;;;;;;;;;;5088959;28;20192;-71
2023/06/21 09:38:33;;;;;;;27.55;23.10;;;;;;;;;;5075980;28;20192;-70
2023/06/21 09:41:00;;;;;;;26.02;21.92;;;;;;;;;;5076170;28;20269;-69
2023/06/21 09:43:25;;;;;;;32.45;25.98;;;;;;;;;;5079458;28;20655;-71
2023/06/21 09:46:05;;;;;;;29.08;23.85;;;;;;;;;;5078363;28;20204;-70
2023/06/21 09:48:33;;;;;;;27.23;22.60;;;;;;;;;;5086813;28;20223;-69
2023/06/21 09:51:11;;;;;;;25.77;20.30;;;;;;;;;;5077755;28;20180;-70
2023/06/21 09:53:36;;;;;;;26.48;21.60;;;;;;;;;;5079832;28;20187;-70
2023/06/21 09:56:03;;;;;;;21.67;18.70;;;;;;;;;;5089254;28;20252;-70
2023/06/21 09:58:32;;;;;;;24.60;20.38;;;;;;;;;;5069135;28;20651;-70
2023/06/21 10:00:57;;;;;;;21.42;19.13;;;;;;;;;;5081624;28;20724;-71
2023/06/21 10:03:24;;;;;;;25.73;21.63;;;;;;;;;;5076504;28;20249;-71
2023/06/21 10:05:57;;;;;;;26.35;20.90;;;;;;;;;;5089046;28;20202;-69
2023/06/21 10:08:33;;;;;;;24.10;20.25;;;;;;;;;;5086556;28;20216;-70
2023/06/21 10:11:01;;;;;;;25.65;21.42;;;;;;;;;;5089185;28;20509;-71
2023/06/21 10:13:31;;;;;;;25.25;21.95;;;;;;;;;;5069721;28;20184;-70
2023/06/21 10:15:59;;;;;;;20.73;18.35;;;;;;;;;;5068699;28;20706;-70
2023/06/21 10:18:28;;;;;;;22.40;18.33;;;;;;;;;;5070561;28;20191;-70
2023/06/21 10:21:01;;;;;;;26.38;23.15;;;;;;;;;;5088797;28;20184;-67
2023/06/21 10:23:29;;;;;;;24.33;19.65;;;;;;;;;;5074247;28;20192;-70
2023/06/21 10:25:59;;;;;;;19.27;17.23;;;;;;;;;;5077340;28;20180;-71
2023/06/21 10:28:27;;;;;;;21.95;17.45;;;;;;;;;;5071133;28;20272;-71
2023/06/21 10:30:57;;;;;;;21.77;18.00;;;;;;;;;;5078572;28;20188;-71
2023/06/21 10:33:26;;;;;;;20.30;17.58;;;;;;;;;;5070784;28;20248;-71
2023/06/21 10:35:53;;;;;;;16.48;14.75;;;;;;;;;;5068878;28;20558;-70
2023/06/21 10:38:18;;;;;;;16.27;14.57;;;;;;;;;;5067704;28;20220;-71
2023/06/21 10:40:44;;;;;;;16.67;14.98;;;;;;;;;;5075413;28;20544;-71
2023/06/21 10:43:11;;;;;;;15.60;13.45;;;;;;;;;;5072761;28;20172;-70
2023/06/21 10:45:38;;;;;;;16.48;12.60;;;;;;;;;;5076916;28;20263;-71
2023/06/21 10:48:06;;;;;;;12.68;11.45;;;;;;;;;;5083667;28;20521;-71
2023/06/21 10:50:31;;;;;;;14.65;12.20;;;;;;;;;;5078982;28;20203;-71
2023/06/21 10:52:58;;;;;;;14.00;11.98;;;;;;;;;;5070360;28;20212;-71
2023/06/21 10:55:24;;;;;;;13.65;12.18;;;;;;;;;;5079328;28;20184;-69
2023/06/21 10:57:54;;;;;;;14.57;13.05;;;;;;;;;;5076504;28;20177;-71
2023/06/21 11:00:22;;;;;;;17.17;14.00;;;;;;;;;;5070962;28;20261;-71
2023/06/21 11:02:48;;;;;;;16.30;14.57;;;;;;;;;;5084949;28;20663;-71
2023/06/21 11:05:22;;;;;;;15.63;14.05;;;;;;;;;;5088398;28;20194;-70
2023/06/21 11:08:09;;;;;;;14.77;13.27;;;;;;;;;;5091307;28;20578;-71
2023/06/21 11:10:49;;;;;;;17.30;15.05;;;;;;;;;;5088762;28;20493;-70
2023/06/21 11:13:34;;;;;;;16.83;15.13;;;;;;;;;;5076477;28;20208;-71
2023/06/21 11:16:17;;;;;;;16.15;14.45;;;;;;;;;;5090480;28;20188;-71
2023/06/21 11:18:49;;;;;;;17.15;14.90;;;;;;;;;;5074374;28;20228;-69
2023/06/21 11:21:34;;;;;;;17.98;15.45;;;;;;;;;;5090871;28;20206;-71
2023/06/21 11:24:05;;;;;;;15.30;13.80;;;;;;;;;;5091546;28;20218;-70
2023/06/21 11:26:51;;;;;;;18.50;16.60;;;;;;;;;;5076735;28;20216;-71
2023/06/21 11:29:16;;;;;;;15.57;13.70;;;;;;;;;;5081419;28;20215;-69
2023/06/21 11:31:42;;;;;;;13.95;12.55;;;;;;;;;;5088214;28;20604;-71
2023/06/21 11:34:22;;;;;;;14.07;12.68;;;;;;;;;;5079059;28;20551;-71
2023/06/21 11:36:47;;;;;;;13.98;12.55;;;;;;;;;;5087714;28;20651;-71
2023/06/21 11:39:13;;;;;;;14.10;12.63;;;;;;;;;;5091096;28;20220;-71
2023/06/21 11:41:44;;;;;;;15.18;13.70;;;;;;;;;;5089146;28;20192;-71
2023/06/21 11:44:24;;;;;;;15.95;14.35;;;;;;;;;;5078055;28;20195;-71
2023/06/21 11:46:49;;;;;;;15.82;14.02;;;;;;;;;;5080169;28;20656;-72
2023/06/21 11:49:16;;;;;;;16.98;15.38;;;;;;;;;;5075393;28;20222;-71
2023/06/21 11:51:59;;;;;;;16.88;15.18;;;;;;;;;;5084712;28;20679;-70
2023/06/21 11:54:33;;;;;;;17.92;16.25;;;;;;;;;;5078052;28;20195;-71
2023/06/21 11:56:58;;;;;;;14.57;13.10;;;;;;;;;;5089674;28;20198;-71
2023/06/21 11:59:27;;;;;;;15.05;13.55;;;;;;;;;;5077691;28;20866;-71
2023/06/21 12:01:53;;;;;;;15.10;13.30;;;;;;;;;;5089589;28;20953;-72
2023/06/21 12:04:26;;;;;;;14.23;12.82;;;;;;;;;;5090086;28;20192;-71
2023/06/21 12:06:51;;;;;;;14.15;12.70;;;;;;;;;;5079658;28;20215;-71
2023/06/21 12:09:17;;;;;;;13.93;12.63;;;;;;;;;;5075613;28;20242;-69
2023/06/21 12:11:42;;;;;;;15.63;14.02;;;;;;;;;;5082898;28;20193;-71
2023/06/21 12:14:09;;;;;;;15.63;14.00;;;;;;;;;;5081491;28;20591;-71
2023/06/21 12:16:34;;;;;;;12.85;11.65;;;;;;;;;;5090781;28;20620;-71
2023/06/21 12:19:00;;;;;;;11.45;10.35;;;;;;;;;;5089086;28;20184;-70
2023/06/21 12:21:27;;;;;;;11.85;10.65;;;;;;;;;;5081290;28;20181;-72
2023/06/21 12:23:58;;;;;;;12.88;11.77;;;;;;;;;;5077784;28;20653;-71
2023/06/21 12:26:26;;;;;;;12.82;11.73;;;;;;;;;;5083843;28;20682;-71
2023/06/21 12:28:52;;;;;;;14.13;12.73;;;;;;;;;;5079388;28;20672;-70
2023/06/21 12:31:18;;;;;;;13.30;12.20;;;;;;;;;;5083182;28;20535;-71
2023/06/21 12:33:44;;;;;;;14.32;12.93;;;;;;;;;;5076707;28;20238;-70
2023/06/21 12:36:21;;;;;;;15.63;13.98;;;;;;;;;;5076088;28;20188;-69
2023/06/21 12:38:47;;;;;;;14.07;12.88;;;;;;;;;;5069577;28;20199;-70
2023/06/21 12:41:17;;;;;;;13.98;12.70;;;;;;;;;;5070306;28;20268;-70
2023/06/21 12:43:45;;;;;;;14.05;12.93;;;;;;;;;;5072645;28;20200;-71
2023/06/21 12:46:11;;;;;;;13.10;12.00;;;;;;;;;;5077591;28;20201;-71
2023/06/21 12:48:47;;;;;;;14.60;13.30;;;;;;;;;;5075402;28;20209;-68
2023/06/21 12:51:23;;;;;;;14.43;13.13;;;;;;;;;;5079059;28;20265;-71
2023/06/21 12:54:00;;;;;;;12.98;11.75;;;;;;;;;;5078253;28;20187;-70
2023/06/21 12:56:27;;;;;;;11.05;10.15;;;;;;;;;;5082829;28;20267;-71
2023/06/21 12:58:52;;;;;;;11.27;10.32;;;;;;;;;;5074995;28;20214;-71
2023/06/21 13:01:18;;;;;;;9.82;9.02;;;;;;;;;;5082629;28;20224;-71
2023/06/21 13:03:44;;;;;;;8.32;7.63;;;;;;;;;;5079391;28;20184;-71
2023/06/21 13:06:10;;;;;;;8.45;7.75;;;;;;;;;;5080379;28;20204;-70
2023/06/21 13:08:35;;;;;;;7.45;6.68;;;;;;;;;;5072856;28;20205;-71
2023/06/21 13:11:00;;;;;;;6.90;6.28;;;;;;;;;;5078627;28;20521;-72
2023/06/21 13:13:26;;;;;;;6.10;5.60;;;;;;;;;;5077295;28;20193;-70
2023/06/21 13:15:53;;;;;;;5.70;5.30;;;;;;;;;;5073080;28;20393;-71
2023/06/21 13:18:19;;;;;;;6.95;6.25;;;;;;;;;;5079952;28;20200;-72
2023/06/21 13:20:45;;;;;;;10.38;8.43;;;;;;;;;;5073221;28;20334;-71
2023/06/21 13:23:11;;;;;;;16.05;9.63;;;;;;;;;;5086665;28;20203;-71
2023/06/21 13:25:36;;;;;;;9.90;8.73;;;;;;;;;;5077657;28;20640;-71
2023/06/21 13:28:01;;;;;;;8.05;7.45;;;;;;;;;;5072817;28;20726;-72
2023/06/21 13:30:27;;;;;;;7.63;5.50;;;;;;;;;;5072785;28;20227;-71
2023/06/21 13:32:52;;;;;;;4.50;4.20;;;;;;;;;;5078017;28;20200;-71
2023/06/21 13:35:18;;;;;;;4.50;4.20;;;;;;;;;;5073776;28;20195;-71
2023/06/21 13:37:43;;;;;;;5.35;4.00;;;;;;;;;;5068344;28;20201;-71
2023/06/21 13:40:09;;;;;;;4.65;3.90;;;;;;;;;;5076012;28;20251;-71
2023/06/21 13:42:35;;;;;;;3.88;3.58;;;;;;;;;;5080139;28;20621;-71
2023/06/21 13:45:00;;;;;;;4.30;4.00;;;;;;;;;;5078189;28;20212;-71
2023/06/21 13:47:26;;;;;;;4.07;3.70;;;;;;;;;;5084072;28;20198;-71
2023/06/21 13:49:51;;;;;;;3.83;3.53;;;;;;;;;;5080735;28;20208;-69
2023/06/21 13:52:19;;;;;;;4.68;2.88;;;;;;;;;;5087800;28;20546;-71
2023/06/21 13:54:45;;;;;;;8.70;2.88;;;;;;;;;;5079500;28;20230;-71
2023/06/21 13:57:14;;;;;;;4.28;2.95;;;;;;;;;;5074375;28;20238;-71
2023/06/21 13:59:44;;;;;;;2.90;2.60;;;;;;;;;;5085506;28;20191;-71
2023/06/21 14:02:09;;;;;;;3.03;2.70;;;;;;;;;;5087045;28;20212;-70
2023/06/21 14:04:35;;;;;;;3.47;2.20;;;;;;;;;;5072579;28;20515;-71
2023/06/21 14:07:01;;;;;;;5.07;2.10;;;;;;;;;;5082957;28;20188;-71
2023/06/21 14:09:26;;;;;;;3.25;2.40;;;;;;;;;;5067849;28;20624;-71
2023/06/21 14:11:52;;;;;;;4.07;2.05;;;;;;;;;;5077586;28;20685;-71
2023/06/21 14:14:17;;;;;;;6.47;2.60;;;;;;;;;;5074484;28;20204;-71
2023/06/21 14:16:42;;;;;;;2.53;2.13;;;;;;;;;;5077986;28;20192;-69
2023/06/21 14:19:08;;;;;;;4.85;2.13;;;;;;;;;;5076925;28;20196;-71